sensor_id;sensor_type;location;lat;lon;timestamp;P1;durP1;ratioP1;P2;durP2;ratioP2
19113;SDS011;9689;51.052;13.772;2023-04-29T00:01:46;34.15;;;19.42;;
19113;SDS011;9689;51.052;13.772;2023-04-29T00:06:48;38.92;;;21.08;;
19113;SDS011;9689;51.052;13.772;2023-04-29T00:11:49;34.42;;;20.33;;
19113;SDS011;9689;51.052;13.772;2023-04-29T00:16:50;38.25;;;20.45;;
19113;SDS011;9689;51.052;13.772;2023-04-29T00:21:52;35.75;;;20.17;;
19113;SDS011;9689;51.052;13.772;2023-04-29T00:26:53;33.70;;;19.92;;
19113;SDS011;9689;51.052;13.772;2023-04-29T00:31:54;38.08;;;20.15;;
19113;SDS011;9689;51.052;13.772;2023-04-29T00:36:56;36.03;;;20.88;;
19113;SDS011;9689;51.052;13.772;2023-04-29T00:41:57;39.78;;;19.38;;
19113;SDS011;9689;51.052;13.772;2023-04-29T00:46:58;35.72;;;20.00;;
19113;SDS011;9689;51.052;13.772;2023-04-29T00:52:00;38.33;;;20.10;;
19113;SDS011;9689;51.052;13.772;2023-04-29T00:57:01;40.95;;;21.65;;
19113;SDS011;9689;51.052;13.772;2023-04-29T01:02:04;32.80;;;20.50;;
19113;SDS011;9689;51.052;13.772;2023-04-29T01:07:08;35.72;;;20.73;;
19113;SDS011;9689;51.052;13.772;2023-04-29T01:12:19;35.03;;;20.35;;
19113;SDS011;9689;51.052;13.772;2023-04-29T01:17:22;34.25;;;20.35;;
19113;SDS011;9689;51.052;13.772;2023-04-29T01:22:26;43.55;;;22.38;;
19113;SDS011;9689;51.052;13.772;2023-04-29T01:27:30;46.80;;;21.13;;
19113;SDS011;9689;51.052;13.772;2023-04-29T01:32:44;40.20;;;21.65;;
19113;SDS011;9689;51.052;13.772;2023-04-29T01:37:55;39.53;;;20.75;;
19113;SDS011;9689;51.052;13.772;2023-04-29T01:43:10;39.67;;;22.55;;
19113;SDS011;9689;51.052;13.772;2023-04-29T01:48:17;41.83;;;22.48;;
19113;SDS011;9689;51.052;13.772;2023-04-29T01:53:18;42.60;;;22.92;;
19113;SDS011;9689;51.052;13.772;2023-04-29T01:58:20;41.75;;;24.83;;
19113;SDS011;9689;51.052;13.772;2023-04-29T02:03:37;44.40;;;22.88;;
19113;SDS011;9689;51.052;13.772;2023-04-29T02:08:42;51.13;;;23.58;;
19113;SDS011;9689;51.052;13.772;2023-04-29T02:13:44;42.28;;;24.98;;
19113;SDS011;9689;51.052;13.772;2023-04-29T02:18:46;44.83;;;23.98;;
19113;SDS011;9689;51.052;13.772;2023-04-29T02:23:47;52.58;;;26.02;;
19113;SDS011;9689;51.052;13.772;2023-04-29T02:28:49;54.80;;;25.60;;
19113;SDS011;9689;51.052;13.772;2023-04-29T02:33:52;50.95;;;25.52;;
19113;SDS011;9689;51.052;13.772;2023-04-29T02:38:53;45.85;;;25.20;;
19113;SDS011;9689;51.052;13.772;2023-04-29T02:43:58;51.95;;;27.17;;
19113;SDS011;9689;51.052;13.772;2023-04-29T02:48:58;51.80;;;26.63;;
19113;SDS011;9689;51.052;13.772;2023-04-29T02:54:00;54.55;;;26.83;;
19113;SDS011;9689;51.052;13.772;2023-04-29T02:59:02;45.75;;;24.42;;
19113;SDS011;9689;51.052;13.772;2023-04-29T03:04:03;48.20;;;24.92;;
19113;SDS011;9689;51.052;13.772;2023-04-29T03:09:04;48.58;;;25.20;;
19113;SDS011;9689;51.052;13.772;2023-04-29T03:14:06;49.38;;;23.73;;
19113;SDS011;9689;51.052;13.772;2023-04-29T03:19:08;45.83;;;24.38;;
19113;SDS011;9689;51.052;13.772;2023-04-29T03:24:10;44.30;;;22.48;;
19113;SDS011;9689;51.052;13.772;2023-04-29T03:29:12;43.75;;;22.92;;
19113;SDS011;9689;51.052;13.772;2023-04-29T03:34:13;41.28;;;22.05;;
19113;SDS011;9689;51.052;13.772;2023-04-29T03:39:20;46.30;;;21.73;;
19113;SDS011;9689;51.052;13.772;2023-04-29T03:44:22;38.20;;;20.15;;
19113;SDS011;9689;51.052;13.772;2023-04-29T03:49:23;35.40;;;20.02;;
19113;SDS011;9689;51.052;13.772;2023-04-29T03:54:24;39.80;;;18.85;;
19113;SDS011;9689;51.052;13.772;2023-04-29T03:59:27;35.20;;;17.45;;
19113;SDS011;9689;51.052;13.772;2023-04-29T04:04:27;30.77;;;17.27;;
19113;SDS011;9689;51.052;13.772;2023-04-29T04:09:30;35.67;;;17.45;;
19113;SDS011;9689;51.052;13.772;2023-04-29T04:14:33;35.45;;;19.13;;
19113;SDS011;9689;51.052;13.772;2023-04-29T04:19:34;32.20;;;15.55;;
19113;SDS011;9689;51.052;13.772;2023-04-29T04:24:35;30.25;;;16.60;;
19113;SDS011;9689;51.052;13.772;2023-04-29T04:29:40;34.97;;;16.70;;
19113;SDS011;9689;51.052;13.772;2023-04-29T04:34:46;30.40;;;15.63;;
19113;SDS011;9689;51.052;13.772;2023-04-29T04:39:47;27.40;;;13.88;;
19113;SDS011;9689;51.052;13.772;2023-04-29T04:44:51;22.70;;;13.48;;
19113;SDS011;9689;51.052;13.772;2023-04-29T04:50:03;28.02;;;14.75;;
19113;SDS011;9689;51.052;13.772;2023-04-29T04:55:05;22.20;;;13.63;;
19113;SDS011;9689;51.052;13.772;2023-04-29T05:00:10;26.08;;;14.55;;
19113;SDS011;9689;51.052;13.772;2023-04-29T05:05:12;24.52;;;13.23;;
19113;SDS011;9689;51.052;13.772;2023-04-29T05:10:16;22.60;;;13.07;;
19113;SDS011;9689;51.052;13.772;2023-04-29T05:15:22;30.45;;;14.63;;
19113;SDS011;9689;51.052;13.772;2023-04-29T05:20:28;23.92;;;12.93;;
19113;SDS011;9689;51.052;13.772;2023-04-29T05:25:31;23.30;;;12.65;;
19113;SDS011;9689;51.052;13.772;2023-04-29T05:30:33;25.38;;;12.90;;
19113;SDS011;9689;51.052;13.772;2023-04-29T05:35:36;22.45;;;12.15;;
19113;SDS011;9689;51.052;13.772;2023-04-29T05:40:37;20.63;;;11.57;;
19113;SDS011;9689;51.052;13.772;2023-04-29T05:45:53;22.80;;;11.88;;
19113;SDS011;9689;51.052;13.772;2023-04-29T05:50:55;23.27;;;12.18;;
19113;SDS011;9689;51.052;13.772;2023-04-29T05:55:56;19.75;;;12.05;;
19113;SDS011;9689;51.052;13.772;2023-04-29T06:00:59;21.55;;;13.15;;
19113;SDS011;9689;51.052;13.772;2023-04-29T06:06:02;20.42;;;11.80;;
19113;SDS011;9689;51.052;13.772;2023-04-29T06:11:23;19.58;;;11.90;;
19113;SDS011;9689;51.052;13.772;2023-04-29T06:16:26;16.00;;;10.43;;
19113;SDS011;9689;51.052;13.772;2023-04-29T06:21:27;15.52;;;10.02;;
19113;SDS011;9689;51.052;13.772;2023-04-29T06:26:28;20.33;;;9.88;;
19113;SDS011;9689;51.052;13.772;2023-04-29T06:31:31;18.08;;;10.63;;
19113;SDS011;9689;51.052;13.772;2023-04-29T06:36:35;17.60;;;10.45;;
19113;SDS011;9689;51.052;13.772;2023-04-29T06:41:36;20.63;;;10.65;;
19113;SDS011;9689;51.052;13.772;2023-04-29T06:46:47;18.13;;;11.65;;
19113;SDS011;9689;51.052;13.772;2023-04-29T06:52:03;17.60;;;10.88;;
19113;SDS011;9689;51.052;13.772;2023-04-29T06:57:04;17.88;;;11.40;;
19113;SDS011;9689;51.052;13.772;2023-04-29T07:02:06;20.48;;;12.82;;
19113;SDS011;9689;51.052;13.772;2023-04-29T07:07:06;17.08;;;10.73;;
19113;SDS011;9689;51.052;13.772;2023-04-29T07:12:08;18.58;;;11.85;;
19113;SDS011;9689;51.052;13.772;2023-04-29T07:17:10;21.83;;;12.40;;
19113;SDS011;9689;51.052;13.772;2023-04-29T07:22:13;21.45;;;12.57;;
19113;SDS011;9689;51.052;13.772;2023-04-29T07:27:14;21.85;;;13.73;;
19113;SDS011;9689;51.052;13.772;2023-04-29T07:32:16;23.77;;;14.82;;
19113;SDS011;9689;51.052;13.772;2023-04-29T07:37:17;24.52;;;14.95;;
19113;SDS011;9689;51.052;13.772;2023-04-29T07:42:19;25.05;;;15.68;;
19113;SDS011;9689;51.052;13.772;2023-04-29T07:47:21;26.27;;;15.02;;
19113;SDS011;9689;51.052;13.772;2023-04-29T07:52:22;24.80;;;14.30;;
19113;SDS011;9689;51.052;13.772;2023-04-29T07:57:23;18.83;;;12.98;;
19113;SDS011;9689;51.052;13.772;2023-04-29T08:02:25;22.33;;;12.85;;
19113;SDS011;9689;51.052;13.772;2023-04-29T08:07:27;21.33;;;13.00;;
19113;SDS011;9689;51.052;13.772;2023-04-29T08:12:29;17.33;;;11.20;;
19113;SDS011;9689;51.052;13.772;2023-04-29T08:17:33;15.25;;;10.35;;
19113;SDS011;9689;51.052;13.772;2023-04-29T08:22:34;13.68;;;9.02;;
19113;SDS011;9689;51.052;13.772;2023-04-29T08:27:35;11.55;;;7.70;;
19113;SDS011;9689;51.052;13.772;2023-04-29T08:32:37;13.13;;;9.20;;
19113;SDS011;9689;51.052;13.772;2023-04-29T08:37:40;12.00;;;8.57;;
19113;SDS011;9689;51.052;13.772;2023-04-29T08:42:40;14.43;;;9.23;;
19113;SDS011;9689;51.052;13.772;2023-04-29T08:47:48;15.82;;;8.93;;
19113;SDS011;9689;51.052;13.772;2023-04-29T08:52:50;12.38;;;8.27;;
19113;SDS011;9689;51.052;13.772;2023-04-29T08:57:51;14.15;;;9.23;;
19113;SDS011;9689;51.052;13.772;2023-04-29T09:02:56;11.90;;;8.38;;
19113;SDS011;9689;51.052;13.772;2023-04-29T09:07:59;13.57;;;9.30;;
19113;SDS011;9689;51.052;13.772;2023-04-29T09:13:02;14.88;;;9.20;;
19113;SDS011;9689;51.052;13.772;2023-04-29T09:18:04;15.93;;;9.38;;
19113;SDS011;9689;51.052;13.772;2023-04-29T09:23:04;13.75;;;8.80;;
19113;SDS011;9689;51.052;13.772;2023-04-29T09:28:13;17.77;;;10.35;;
19113;SDS011;9689;51.052;13.772;2023-04-29T09:33:16;17.85;;;10.70;;
19113;SDS011;9689;51.052;13.772;2023-04-29T09:38:16;18.23;;;10.93;;
19113;SDS011;9689;51.052;13.772;2023-04-29T09:43:17;18.58;;;10.70;;
19113;SDS011;9689;51.052;13.772;2023-04-29T09:48:21;15.38;;;9.20;;
19113;SDS011;9689;51.052;13.772;2023-04-29T09:53:27;15.60;;;9.18;;
19113;SDS011;9689;51.052;13.772;2023-04-29T09:58:29;12.52;;;8.63;;
19113;SDS011;9689;51.052;13.772;2023-04-29T10:03:37;16.40;;;10.27;;
19113;SDS011;9689;51.052;13.772;2023-04-29T10:08:38;12.00;;;7.95;;
19113;SDS011;9689;51.052;13.772;2023-04-29T10:13:41;12.23;;;7.47;;
19113;SDS011;9689;51.052;13.772;2023-04-29T10:18:47;13.75;;;7.63;;
19113;SDS011;9689;51.052;13.772;2023-04-29T10:23:52;12.93;;;7.72;;
19113;SDS011;9689;51.052;13.772;2023-04-29T10:28:54;15.57;;;8.30;;
19113;SDS011;9689;51.052;13.772;2023-04-29T10:33:57;13.35;;;8.57;;
19113;SDS011;9689;51.052;13.772;2023-04-29T10:39:00;13.90;;;8.70;;
19113;SDS011;9689;51.052;13.772;2023-04-29T10:44:04;16.40;;;10.13;;
19113;SDS011;9689;51.052;13.772;2023-04-29T10:49:06;19.17;;;11.02;;
19113;SDS011;9689;51.052;13.772;2023-04-29T10:54:08;20.77;;;10.02;;
19113;SDS011;9689;51.052;13.772;2023-04-29T10:59:10;15.20;;;9.35;;
19113;SDS011;9689;51.052;13.772;2023-04-29T11:04:14;16.02;;;9.48;;
19113;SDS011;9689;51.052;13.772;2023-04-29T11:09:19;15.70;;;8.80;;
19113;SDS011;9689;51.052;13.772;2023-04-29T11:14:22;14.35;;;9.70;;
19113;SDS011;9689;51.052;13.772;2023-04-29T11:19:29;14.65;;;9.85;;
19113;SDS011;9689;51.052;13.772;2023-04-29T11:24:32;14.73;;;8.60;;
19113;SDS011;9689;51.052;13.772;2023-04-29T11:29:33;14.40;;;9.65;;
19113;SDS011;9689;51.052;13.772;2023-04-29T11:34:36;15.55;;;8.50;;
19113;SDS011;9689;51.052;13.772;2023-04-29T11:39:36;11.75;;;6.85;;
19113;SDS011;9689;51.052;13.772;2023-04-29T11:44:37;10.55;;;6.70;;
19113;SDS011;9689;51.052;13.772;2023-04-29T11:49:40;11.27;;;6.93;;
19113;SDS011;9689;51.052;13.772;2023-04-29T11:54:41;8.82;;;6.20;;
19113;SDS011;9689;51.052;13.772;2023-04-29T11:59:41;7.07;;;4.93;;
19113;SDS011;9689;51.052;13.772;2023-04-29T12:04:46;7.55;;;5.03;;
19113;SDS011;9689;51.052;13.772;2023-04-29T12:09:47;7.80;;;4.90;;
19113;SDS011;9689;51.052;13.772;2023-04-29T12:14:48;8.32;;;5.10;;
19113;SDS011;9689;51.052;13.772;2023-04-29T12:19:51;7.82;;;4.75;;
19113;SDS011;9689;51.052;13.772;2023-04-29T12:24:52;8.05;;;5.07;;
19113;SDS011;9689;51.052;13.772;2023-04-29T12:29:55;9.70;;;5.88;;
19113;SDS011;9689;51.052;13.772;2023-04-29T12:34:57;13.23;;;7.65;;
19113;SDS011;9689;51.052;13.772;2023-04-29T12:39:58;11.02;;;7.20;;
19113;SDS011;9689;51.052;13.772;2023-04-29T12:44:59;11.95;;;8.00;;
19113;SDS011;9689;51.052;13.772;2023-04-29T12:50:01;10.70;;;7.45;;
19113;SDS011;9689;51.052;13.772;2023-04-29T12:55:03;11.85;;;7.43;;
19113;SDS011;9689;51.052;13.772;2023-04-29T13:00:05;9.77;;;6.65;;
19113;SDS011;9689;51.052;13.772;2023-04-29T13:05:09;8.27;;;6.30;;
19113;SDS011;9689;51.052;13.772;2023-04-29T13:10:11;15.13;;;7.10;;
19113;SDS011;9689;51.052;13.772;2023-04-29T13:15:12;12.65;;;7.35;;
19113;SDS011;9689;51.052;13.772;2023-04-29T13:20:15;12.40;;;7.75;;
19113;SDS011;9689;51.052;13.772;2023-04-29T13:25:16;13.20;;;8.07;;
19113;SDS011;9689;51.052;13.772;2023-04-29T13:30:16;18.50;;;10.45;;
19113;SDS011;9689;51.052;13.772;2023-04-29T13:35:18;18.25;;;10.45;;
19113;SDS011;9689;51.052;13.772;2023-04-29T13:40:19;23.88;;;13.23;;
19113;SDS011;9689;51.052;13.772;2023-04-29T13:45:20;28.08;;;13.65;;
19113;SDS011;9689;51.052;13.772;2023-04-29T13:50:22;27.80;;;13.85;;
19113;SDS011;9689;51.052;13.772;2023-04-29T13:55:43;29.38;;;14.70;;
19113;SDS011;9689;51.052;13.772;2023-04-29T14:00:46;29.17;;;15.18;;
19113;SDS011;9689;51.052;13.772;2023-04-29T14:05:52;30.38;;;15.32;;
19113;SDS011;9689;51.052;13.772;2023-04-29T14:10:53;29.77;;;14.95;;
19113;SDS011;9689;51.052;13.772;2023-04-29T14:15:53;28.60;;;14.15;;
19113;SDS011;9689;51.052;13.772;2023-04-29T14:20:56;34.42;;;15.30;;
19113;SDS011;9689;51.052;13.772;2023-04-29T14:25:57;30.17;;;14.80;;
19113;SDS011;9689;51.052;13.772;2023-04-29T14:31:18;33.03;;;14.68;;
19113;SDS011;9689;51.052;13.772;2023-04-29T14:36:20;28.50;;;14.90;;
19113;SDS011;9689;51.052;13.772;2023-04-29T14:41:21;28.10;;;14.68;;
19113;SDS011;9689;51.052;13.772;2023-04-29T14:46:22;32.22;;;15.73;;
19113;SDS011;9689;51.052;13.772;2023-04-29T14:51:24;27.95;;;14.13;;
19113;SDS011;9689;51.052;13.772;2023-04-29T14:56:26;23.95;;;13.82;;
19113;SDS011;9689;51.052;13.772;2023-04-29T15:01:27;35.25;;;19.40;;
19113;SDS011;9689;51.052;13.772;2023-04-29T15:06:32;25.83;;;13.90;;
19113;SDS011;9689;51.052;13.772;2023-04-29T15:11:33;24.70;;;13.77;;
19113;SDS011;9689;51.052;13.772;2023-04-29T15:16:34;23.80;;;14.30;;
19113;SDS011;9689;51.052;13.772;2023-04-29T15:21:36;28.00;;;14.77;;
19113;SDS011;9689;51.052;13.772;2023-04-29T15:26:37;24.55;;;14.00;;
19113;SDS011;9689;51.052;13.772;2023-04-29T15:31:38;22.52;;;12.75;;
19113;SDS011;9689;51.052;13.772;2023-04-29T15:36:40;31.25;;;19.05;;
19113;SDS011;9689;51.052;13.772;2023-04-29T15:41:41;23.08;;;12.90;;
19113;SDS011;9689;51.052;13.772;2023-04-29T15:46:42;26.10;;;14.57;;
19113;SDS011;9689;51.052;13.772;2023-04-29T15:51:44;22.60;;;13.38;;
19113;SDS011;9689;51.052;13.772;2023-04-29T15:56:45;25.63;;;14.55;;
19113;SDS011;9689;51.052;13.772;2023-04-29T16:01:45;25.15;;;14.00;;
19113;SDS011;9689;51.052;13.772;2023-04-29T16:06:47;27.88;;;15.32;;
19113;SDS011;9689;51.052;13.772;2023-04-29T16:11:49;26.52;;;14.82;;
19113;SDS011;9689;51.052;13.772;2023-04-29T16:16:52;28.02;;;14.63;;
19113;SDS011;9689;51.052;13.772;2023-04-29T16:21:54;23.02;;;14.23;;
19113;SDS011;9689;51.052;13.772;2023-04-29T16:26:55;26.60;;;14.77;;
19113;SDS011;9689;51.052;13.772;2023-04-29T16:31:57;25.80;;;14.30;;
19113;SDS011;9689;51.052;13.772;2023-04-29T16:36:59;25.17;;;15.80;;
19113;SDS011;9689;51.052;13.772;2023-04-29T16:42:00;30.60;;;14.85;;
19113;SDS011;9689;51.052;13.772;2023-04-29T16:47:00;23.58;;;14.10;;
19113;SDS011;9689;51.052;13.772;2023-04-29T16:52:03;25.88;;;13.82;;
19113;SDS011;9689;51.052;13.772;2023-04-29T16:57:04;20.40;;;12.95;;
19113;SDS011;9689;51.052;13.772;2023-04-29T17:02:05;24.10;;;12.88;;
19113;SDS011;9689;51.052;13.772;2023-04-29T17:07:07;23.73;;;13.10;;
19113;SDS011;9689;51.052;13.772;2023-04-29T17:12:08;20.10;;;12.70;;
19113;SDS011;9689;51.052;13.772;2023-04-29T17:17:10;22.65;;;12.93;;
19113;SDS011;9689;51.052;13.772;2023-04-29T17:22:12;21.23;;;12.10;;
19113;SDS011;9689;51.052;13.772;2023-04-29T17:27:12;23.73;;;12.40;;
19113;SDS011;9689;51.052;13.772;2023-04-29T17:32:13;20.35;;;11.88;;
19113;SDS011;9689;51.052;13.772;2023-04-29T17:37:17;21.42;;;12.50;;
19113;SDS011;9689;51.052;13.772;2023-04-29T17:42:23;22.30;;;12.43;;
19113;SDS011;9689;51.052;13.772;2023-04-29T17:47:24;21.80;;;12.27;;
19113;SDS011;9689;51.052;13.772;2023-04-29T17:52:26;22.73;;;12.60;;
19113;SDS011;9689;51.052;13.772;2023-04-29T17:57:27;19.50;;;12.18;;
19113;SDS011;9689;51.052;13.772;2023-04-29T18:02:28;20.63;;;12.18;;
19113;SDS011;9689;51.052;13.772;2023-04-29T18:07:33;19.52;;;11.45;;
19113;SDS011;9689;51.052;13.772;2023-04-29T18:12:33;19.88;;;11.43;;
19113;SDS011;9689;51.052;13.772;2023-04-29T18:17:34;20.08;;;12.05;;
19113;SDS011;9689;51.052;13.772;2023-04-29T18:22:36;19.80;;;12.32;;
19113;SDS011;9689;51.052;13.772;2023-04-29T18:27:37;16.73;;;10.23;;
19113;SDS011;9689;51.052;13.772;2023-04-29T18:32:38;20.55;;;11.57;;
19113;SDS011;9689;51.052;13.772;2023-04-29T18:37:40;16.98;;;10.50;;
19113;SDS011;9689;51.052;13.772;2023-04-29T18:42:42;18.92;;;11.25;;
19113;SDS011;9689;51.052;13.772;2023-04-29T18:47:43;17.27;;;10.27;;
19113;SDS011;9689;51.052;13.772;2023-04-29T18:52:45;18.27;;;9.45;;
19113;SDS011;9689;51.052;13.772;2023-04-29T18:57:46;17.20;;;10.32;;
19113;SDS011;9689;51.052;13.772;2023-04-29T19:02:46;18.10;;;10.50;;
19113;SDS011;9689;51.052;13.772;2023-04-29T19:07:49;16.02;;;9.70;;
19113;SDS011;9689;51.052;13.772;2023-04-29T19:12:49;15.63;;;9.68;;
19113;SDS011;9689;51.052;13.772;2023-04-29T19:17:50;18.80;;;10.27;;
19113;SDS011;9689;51.052;13.772;2023-04-29T19:22:52;19.88;;;10.60;;
19113;SDS011;9689;51.052;13.772;2023-04-29T19:27:53;21.65;;;11.20;;
19113;SDS011;9689;51.052;13.772;2023-04-29T19:32:54;18.15;;;10.25;;
19113;SDS011;9689;51.052;13.772;2023-04-29T19:37:56;25.88;;;11.88;;
19113;SDS011;9689;51.052;13.772;2023-04-29T19:42:57;19.45;;;11.43;;
19113;SDS011;9689;51.052;13.772;2023-04-29T19:47:58;18.85;;;11.65;;
19113;SDS011;9689;51.052;13.772;2023-04-29T19:53:01;20.42;;;11.43;;
19113;SDS011;9689;51.052;13.772;2023-04-29T19:58:02;19.42;;;11.68;;
19113;SDS011;9689;51.052;13.772;2023-04-29T20:03:03;19.48;;;11.77;;
19113;SDS011;9689;51.052;13.772;2023-04-29T20:08:05;21.65;;;13.10;;
19113;SDS011;9689;51.052;13.772;2023-04-29T20:13:06;18.83;;;11.57;;
19113;SDS011;9689;51.052;13.772;2023-04-29T20:18:07;17.35;;;10.63;;
19113;SDS011;9689;51.052;13.772;2023-04-29T20:23:09;20.52;;;10.65;;
19113;SDS011;9689;51.052;13.772;2023-04-29T20:28:10;20.52;;;9.85;;
19113;SDS011;9689;51.052;13.772;2023-04-29T20:33:11;17.60;;;11.80;;
19113;SDS011;9689;51.052;13.772;2023-04-29T20:38:13;21.80;;;11.75;;
19113;SDS011;9689;51.052;13.772;2023-04-29T20:43:14;17.63;;;11.40;;
19113;SDS011;9689;51.052;13.772;2023-04-29T20:48:15;19.92;;;10.57;;
19113;SDS011;9689;51.052;13.772;2023-04-29T20:53:17;16.98;;;10.63;;
19113;SDS011;9689;51.052;13.772;2023-04-29T20:58:18;22.10;;;11.57;;
19113;SDS011;9689;51.052;13.772;2023-04-29T21:03:19;16.30;;;10.13;;
19113;SDS011;9689;51.052;13.772;2023-04-29T21:08:21;17.65;;;10.98;;
19113;SDS011;9689;51.052;13.772;2023-04-29T21:13:22;22.17;;;12.30;;
19113;SDS011;9689;51.052;13.772;2023-04-29T21:18:23;16.30;;;10.88;;
19113;SDS011;9689;51.052;13.772;2023-04-29T21:23:25;20.97;;;11.93;;
19113;SDS011;9689;51.052;13.772;2023-04-29T21:28:26;18.77;;;12.43;;
19113;SDS011;9689;51.052;13.772;2023-04-29T21:33:27;22.73;;;12.60;;
19113;SDS011;9689;51.052;13.772;2023-04-29T21:38:29;20.08;;;12.52;;
19113;SDS011;9689;51.052;13.772;2023-04-29T21:43:30;17.83;;;12.00;;
19113;SDS011;9689;51.052;13.772;2023-04-29T21:48:31;23.52;;;13.50;;
19113;SDS011;9689;51.052;13.772;2023-04-29T21:53:33;18.48;;;12.20;;
19113;SDS011;9689;51.052;13.772;2023-04-29T21:58:35;19.70;;;13.13;;
19113;SDS011;9689;51.052;13.772;2023-04-29T22:03:36;24.13;;;13.52;;
19113;SDS011;9689;51.052;13.772;2023-04-29T22:08:38;22.90;;;12.93;;
19113;SDS011;9689;51.052;13.772;2023-04-29T22:13:39;21.25;;;12.77;;
19113;SDS011;9689;51.052;13.772;2023-04-29T22:18:40;22.55;;;12.60;;
19113;SDS011;9689;51.052;13.772;2023-04-29T22:23:42;22.70;;;12.85;;
19113;SDS011;9689;51.052;13.772;2023-04-29T22:28:43;18.05;;;13.13;;
19113;SDS011;9689;51.052;13.772;2023-04-29T22:33:43;23.20;;;12.50;;
19113;SDS011;9689;51.052;13.772;2023-04-29T22:38:45;22.58;;;12.48;;
19113;SDS011;9689;51.052;13.772;2023-04-29T22:43:47;20.00;;;13.30;;
19113;SDS011;9689;51.052;13.772;2023-04-29T22:48:47;18.88;;;12.38;;
19113;SDS011;9689;51.052;13.772;2023-04-29T22:53:49;27.00;;;11.77;;
19113;SDS011;9689;51.052;13.772;2023-04-29T22:58:50;21.58;;;12.98;;
19113;SDS011;9689;51.052;13.772;2023-04-29T23:03:51;21.40;;;13.15;;
19113;SDS011;9689;51.052;13.772;2023-04-29T23:08:53;20.02;;;12.77;;
19113;SDS011;9689;51.052;13.772;2023-04-29T23:13:53;23.00;;;12.88;;
19113;SDS011;9689;51.052;13.772;2023-04-29T23:18:54;21.92;;;12.65;;
19113;SDS011;9689;51.052;13.772;2023-04-29T23:23:56;18.23;;;11.80;;
19113;SDS011;9689;51.052;13.772;2023-04-29T23:28:57;20.67;;;12.60;;
19113;SDS011;9689;51.052;13.772;2023-04-29T23:33:58;20.52;;;11.73;;
19113;SDS011;9689;51.052;13.772;2023-04-29T23:39:00;25.13;;;13.25;;
19113;SDS011;9689;51.052;13.772;2023-04-29T23:44:01;26.40;;;12.63;;
19113;SDS011;9689;51.052;13.772;2023-04-29T23:49:02;22.27;;;12.57;;
19113;SDS011;9689;51.052;13.772;2023-04-29T23:54:04;21.85;;;13.27;;
19113;SDS011;9689;51.052;13.772;2023-04-29T23:59:05;19.83;;;12.45;;
